Time;durP1;ratioP1;P1;durP2;ratioP2;P2;SDS_P1;SDS_P2;PMS_P1;PMS_P2;Temp;Humidity;BMP_temperature;BMP_pressure;BME280_temperature;BME280_humidity;BME280_pressure;Samples;Min_cycle;Max_cycle;Signal;HPM_P1;HPM_P2
2021/09/12 05:00:22;;;;;;;5.07;4.50;;;;;;;14.86;64.62;94790.22;6103780;23;20658;31
2021/09/12 05:02:48;;;;;;;12.63;4.65;;;;;;;15.93;60.62;94786.19;4931826;29;20083;-90
2021/09/12 05:05:13;;;;;;;5.95;4.47;;;;;;;15.66;61.10;94784.69;4931778;29;20043;-91
2021/09/12 05:07:39;;;;;;;7.05;4.38;;;;;;;16.04;60.83;94789.97;4916001;29;20034;-92
2021/09/12 05:10:05;;;;;;;6.93;4.00;;;;;;;17.94;55.02;94785.84;4932755;29;20038;-90
2021/09/12 05:12:30;;;;;;;6.07;4.20;;;;;;;18.09;53.07;94790.69;4931539;29;20108;-87
2021/09/12 05:14:56;;;;;;;6.22;3.72;;;;;;;19.42;50.90;94789.38;4916606;29;20034;-86
2021/09/12 05:17:21;;;;;;;5.20;3.75;;;;;;;21.27;46.44;94789.72;4914510;29;20480;-88
2021/09/12 05:19:47;;;;;;;6.80;3.80;;;;;;;22.59;43.07;94793.03;4900470;29;20020;-88
2021/09/12 05:22:13;;;;;;;9.43;4.25;;;;;;;18.93;50.31;94796.59;4914905;29;20474;-88
2021/09/12 05:24:38;;;;;;;8.10;3.85;;;;;;;19.28;50.48;94791.38;4900215;29;20035;-88
2021/09/12 05:27:04;;;;;;;7.95;3.88;;;;;;;20.69;47.47;94792.69;4932340;29;20066;-87
2021/09/12 05:29:29;;;;;;;6.22;3.53;;;;;;;21.92;45.85;94795.16;4915946;29;20039;-87
2021/09/12 05:31:55;;;;;;;4.70;3.80;;;;;;;21.76;46.56;94796.78;4931179;29;20032;-86
2021/09/12 05:34:20;;;;;;;3.63;3.33;;;;;;;21.62;46.60;94792.88;4897416;29;20099;-86
2021/09/12 05:36:46;;;;;;;7.47;3.40;;;;;;;21.75;47.00;94799.66;4915237;29;20032;-87
2021/09/12 05:39:11;;;;;;;8.77;4.05;;;;;;;22.15;45.88;94794.94;4913376;29;20032;-90
2021/09/12 05:41:37;;;;;;;4.05;3.65;;;;;;;23.07;44.53;94797.47;4899811;29;20087;-88
2021/09/12 05:44:02;;;;;;;3.92;3.50;;;;;;;23.42;43.31;94794.31;4914135;29;20429;-88
2021/09/12 05:46:28;;;;;;;9.40;3.60;;;;;;;24.35;41.26;94790.06;4914544;29;20027;-89
2021/09/12 05:48:54;;;;;;;4.13;3.78;;;;;;;24.81;39.32;94788.31;4914330;29;20403;-88
2021/09/12 05:51:20;;;;;;;4.68;3.38;;;;;;;23.99;41.20;94795.19;4912829;29;20036;-87
2021/09/12 05:53:46;;;;;;;11.55;3.47;;;;;;;23.40;41.24;94786.66;4913937;29;20036;-87
2021/09/12 05:56:11;;;;;;;4.40;3.90;;;;;;;22.12;44.18;94799.91;4928861;29;20043;-88
2021/09/12 05:58:37;;;;;;;4.20;3.80;;;;;;;20.17;49.87;94802.47;4915781;29;20035;-88
2021/09/12 06:01:02;;;;;;;4.63;3.47;;;;;;;20.14;50.21;94795.06;4914166;29;20040;-88
2021/09/12 06:03:28;;;;;;;7.60;3.67;;;;;;;19.70;49.50;94796.53;4930673;29;20020;-87
2021/09/12 06:05:54;;;;;;;4.20;3.25;;;;;;;20.19;49.19;94793.34;4935424;29;20024;-87
2021/09/12 06:08:20;;;;;;;3.90;3.47;;;;;;;19.95;49.32;94802.31;4932932;29;20087;-86
2021/09/12 06:10:45;;;;;;;4.10;3.58;;;;;;;20.16;48.96;94785.94;4934098;29;20091;-86
2021/09/12 06:13:11;;;;;;;12.18;3.55;;;;;;;20.26;49.56;94794.00;4948417;29;20509;-87
2021/09/12 06:15:36;;;;;;;6.15;3.40;;;;;;;20.99;47.35;94798.50;4933532;29;20532;-86
2021/09/12 06:18:02;;;;;;;3.75;3.08;;;;;;;22.61;44.90;94806.78;4930192;29;20024;-87
2021/09/12 06:20:27;;;;;;;7.82;3.50;;;;;;;26.40;36.98;94806.22;4933096;29;20561;-86
2021/09/12 06:22:53;;;;;;;5.03;2.97;;;;;;;28.89;32.84;94794.94;4916997;29;20027;-87
2021/09/12 06:25:19;;;;;;;6.03;3.35;;;;;;;28.16;32.86;94798.75;4917312;29;20027;-86
2021/09/12 06:27:45;;;;;;;3.08;2.55;;;;;;;29.81;31.22;94802.00;4917528;29;20592;-86
2021/09/12 06:30:11;;;;;;;3.67;2.67;;;;;;;30.22;30.17;94807.41;4916410;29;20036;-85
2021/09/12 06:32:36;;;;;;;4.20;3.10;;;;;;;31.14;28.93;94799.09;4932884;29;20056;-85
2021/09/12 06:35:02;;;;;;;3.42;2.90;;;;;;;30.80;29.18;94806.78;4931543;29;20070;-86
2021/09/12 06:37:28;;;;;;;3.22;2.88;;;;;;;30.83;29.64;94795.47;4933100;29;20032;-85
2021/09/12 06:39:53;;;;;;;3.30;2.50;;;;;;;30.09;29.12;94807.38;4915623;29;20122;-85
2021/09/12 06:42:18;;;;;;;2.95;2.65;;;;;;;31.30;28.14;94799.50;4934582;29;20020;-85
2021/09/12 06:44:44;;;;;;;3.83;2.38;;;;;;;31.99;26.74;94803.41;4932118;29;20433;-85
2021/09/12 06:47:09;;;;;;;5.15;3.08;;;;;;;30.27;28.92;94801.97;4931840;29;20028;-85
2021/09/12 06:49:35;;;;;;;5.50;2.65;;;;;;;29.91;29.18;94801.06;4934050;29;20031;-84
2021/09/12 06:52:00;;;;;;;3.75;2.83;;;;;;;31.83;27.81;94802.22;4931311;29;20060;-86
2021/09/12 06:54:27;;;;;;;3.10;2.90;;;;;;;31.62;26.65;94801.16;4932664;29;20548;-84
2021/09/12 06:56:52;;;;;;;3.08;2.78;;;;;;;32.53;26.52;94796.84;4914962;29;20038;-86
2021/09/12 06:59:18;;;;;;;4.30;3.13;;;;;;;33.28;25.54;94804.56;4931980;29;20039;-86
2021/09/12 07:01:43;;;;;;;3.15;2.83;;;;;;;34.03;24.81;94800.50;4915005;29;20058;-85
2021/09/12 07:04:09;;;;;;;4.05;2.80;;;;;;;32.87;25.82;94802.31;4897622;29;20474;-85
2021/09/12 07:06:35;;;;;;;4.22;3.25;;;;;;;31.73;27.49;94807.84;4928647;29;20500;-85
2021/09/12 07:09:00;;;;;;;3.78;3.40;;;;;;;28.54;30.52;94806.84;4914165;29;20160;-85
2021/09/12 07:11:26;;;;;;;3.08;2.88;;;;;;;25.63;35.07;94804.03;4929399;29;20612;-84
2021/09/12 07:13:51;;;;;;;3.95;3.08;;;;;;;25.35;36.14;94797.41;4919811;29;20031;-88
2021/09/12 07:16:17;;;;;;;4.30;3.58;;;;;;;25.42;35.62;94813.03;4915330;29;20032;-84
2021/09/12 07:18:42;;;;;;;5.18;3.00;;;;;;;25.07;37.08;94808.53;4915954;29;20031;-85
2021/09/12 07:21:08;;;;;;;3.25;2.83;;;;;;;24.89;36.09;94809.81;4932264;29;20030;-85
2021/09/12 07:23:33;;;;;;;4.18;2.97;;;;;;;24.52;36.64;94803.91;4899678;29;20460;-86
2021/09/12 07:25:58;;;;;;;3.65;2.95;;;;;;;24.18;38.33;94808.03;4932726;29;20027;-86
2021/09/12 07:28:24;;;;;;;3.60;3.30;;;;;;;24.17;37.40;94809.88;4916174;29;20028;-85
2021/09/12 07:30:49;;;;;;;9.40;3.50;;;;;;;24.33;38.21;94808.06;4914558;29;20087;-84
2021/09/12 07:33:15;;;;;;;4.70;2.90;;;;;;;24.37;37.81;94803.84;4916163;29;20059;-85
2021/09/12 07:35:40;;;;;;;4.47;3.00;;;;;;;23.63;39.59;94800.56;4929782;29;20062;-85
2021/09/12 07:38:06;;;;;;;5.82;2.90;;;;;;;23.76;38.57;94802.75;4916020;29;20019;-85
2021/09/12 07:40:31;;;;;;;6.93;3.13;;;;;;;23.98;39.54;94798.91;4898506;29;20031;-85
2021/09/12 07:42:57;;;;;;;4.53;3.20;;;;;;;23.22;41.30;94794.13;4915046;29;20123;-84
2021/09/12 07:45:22;;;;;;;5.90;2.92;;;;;;;22.71;39.97;94806.91;4946278;29;20032;-85
2021/09/12 07:47:48;;;;;;;5.65;3.30;;;;;;;23.56;40.13;94796.28;4914465;29;20509;-85
2021/09/12 07:50:13;;;;;;;3.30;3.00;;;;;;;23.61;40.99;94804.25;4915936;29;20024;-87
2021/09/12 07:52:44;;;;;;;7.70;3.33;;;;;;;23.56;40.32;94800.78;4931248;29;20023;-86
2021/09/12 07:55:11;;;;;;;3.53;3.08;;;;;;;23.74;40.32;94794.25;4933497;29;20100;-85
2021/09/12 07:57:36;;;;;;;7.40;3.47;;;;;;;22.95;41.91;94791.56;4914300;29;20035;-85
2021/09/12 08:00:04;;;;;;;4.68;3.10;;;;;;;23.21;41.18;94793.38;4930990;29;20036;-84
2021/09/12 08:02:29;;;;;;;6.57;3.08;;;;;;;23.25;40.92;94794.44;4914048;29;20079;-85
2021/09/12 08:04:54;;;;;;;4.32;3.20;;;;;;;23.51;40.31;94790.16;4931644;29;20019;-84
2021/09/12 08:07:20;;;;;;;7.13;3.20;;;;;;;23.43;39.94;94786.16;4930803;29;20098;-85
2021/09/12 08:09:45;;;;;;;7.85;3.53;;;;;;;22.89;40.51;94788.06;4929797;29;20028;-85
2021/09/12 08:12:11;;;;;;;6.13;3.15;;;;;;;23.65;39.90;94774.63;4930777;29;20107;-84
2021/09/12 08:14:37;;;;;;;5.93;3.03;;;;;;;23.66;40.29;94784.97;4912995;29;20036;-84
2021/09/12 08:17:02;;;;;;;3.92;3.35;;;;;;;24.05;39.31;94785.41;4914759;29;20130;-85
2021/09/12 08:19:28;;;;;;;6.72;3.92;;;;;;;23.58;41.37;94773.00;4913648;29;20406;-83
2021/09/12 08:21:53;;;;;;;4.20;3.80;;;;;;;24.26;40.15;94783.69;4914028;29;20035;-84
2021/09/12 08:24:19;;;;;;;14.85;4.07;;;;;;;24.28;40.29;94779.72;4929780;29;20036;-85
2021/09/12 08:26:44;;;;;;;9.27;4.18;;;;;;;23.49;40.83;94774.56;4929865;29;20509;-84
2021/09/12 08:29:10;;;;;;;9.70;4.53;;;;;;;24.00;38.98;94774.81;4913516;29;20695;-84
2021/09/12 08:31:35;;;;;;;11.02;4.28;;;;;;;24.36;39.27;94773.13;4897386;29;20028;-84
2021/09/12 08:34:01;;;;;;;7.10;4.70;;;;;;;23.91;38.66;94779.00;4914347;29;20505;-84
2021/09/12 08:36:26;;;;;;;6.07;4.25;;;;;;;24.29;39.32;94767.28;4913126;29;20047;-83
2021/09/12 08:38:51;;;;;;;11.38;4.57;;;;;;;23.94;38.77;94765.25;4913998;29;20035;-82
2021/09/12 08:41:18;;;;;;;6.72;4.25;;;;;;;24.40;38.95;94755.66;4913254;29;20042;-83
2021/09/12 08:43:43;;;;;;;9.73;4.90;;;;;;;24.75;38.85;94762.88;4898861;29;20035;-84
2021/09/12 08:46:09;;;;;;;6.68;4.57;;;;;;;24.70;40.82;94753.06;4913891;29;20533;-84
2021/09/12 08:48:36;;;;;;;6.85;4.18;;;;;;;23.58;40.35;94751.84;4897933;29;20032;-85
2021/09/12 08:51:01;;;;;;;8.75;5.05;;;;;;;23.56;40.30;94750.53;4914485;29;20040;-85
2021/09/12 08:53:27;;;;;;;5.80;4.88;;;;;;;24.83;39.80;94743.81;4929058;29;20075;-84
2021/09/12 08:55:52;;;;;;;13.80;5.38;;;;;;;25.07;38.92;94751.00;4914434;29;20042;-85
2021/09/12 08:58:18;;;;;;;9.27;5.28;;;;;;;25.35;39.00;94736.38;4930315;29;20020;-84
2021/09/12 09:00:44;;;;;;;7.43;5.03;;;;;;;25.65;37.72;94739.00;4913011;29;21248;-85
2021/09/12 09:03:09;;;;;;;15.85;5.70;;;;;;;24.91;37.57;94736.16;4913534;29;20059;-86
2021/09/12 09:05:37;;;;;;;6.85;4.78;;;;;;;24.30;39.64;94729.97;4929738;29;20059;-83
2021/09/12 09:08:14;;;;;;;7.25;4.90;;;;;;;25.91;37.53;94725.66;4930138;29;20035;-84
2021/09/12 09:10:50;;;;;;;7.32;4.90;;;;;;;26.14;37.36;94722.34;4927666;29;20497;-83
2021/09/12 09:13:38;;;;;;;5.85;4.68;;;;;;;26.49;36.24;94721.44;4913889;29;20032;-85
2021/09/12 09:16:05;;;;;;;5.30;4.43;;;;;;;25.47;36.56;94725.47;4912810;29;20031;-84
2021/09/12 09:18:34;;;;;;;6.57;4.47;;;;;;;24.59;37.25;94712.50;4913779;29;20039;-84
2021/09/12 09:21:00;;;;;;;4.32;3.83;;;;;;;25.84;35.94;94717.19;4929490;29;20382;-85
2021/09/12 09:23:26;;;;;;;8.30;4.53;;;;;;;26.13;34.04;94712.81;4929533;29;20027;-81
2021/09/12 09:25:53;;;;;;;10.98;5.72;;;;;;;26.04;34.83;94706.50;4913835;29;20441;-83
2021/09/12 09:28:19;;;;;;;50.38;29.50;;;;;;;26.38;35.88;94710.06;4928013;29;20433;-85
2021/09/12 09:30:49;;;;;;;8.95;5.72;;;;;;;26.95;35.30;94709.41;4913214;29;20030;-83
2021/09/12 09:33:25;;;;;;;5.80;4.28;;;;;;;26.27;34.16;94707.72;4929167;29;20043;-82
2021/09/12 09:36:07;;;;;;;8.00;6.57;;;;;;;26.02;35.13;94706.75;4913428;29;20510;-83
2021/09/12 09:38:36;;;;;;;6.45;5.47;;;;;;;26.89;34.97;94702.53;4898697;29;20034;-82
2021/09/12 09:41:02;;;;;;;;;;;;;;;26.91;32.02;94708.38;4927853;29;20083;-83
2021/09/12 09:43:45;;;;;;;4.85;3.80;;;;;;;27.01;32.32;94687.00;4930733;29;20362;-84
2021/09/12 09:46:31;;;;;;;9.55;4.35;;;;;;;26.50;33.45;94696.41;4927790;29;20501;-83
2021/09/12 09:48:58;;;;;;;5.03;3.95;;;;;;;26.53;33.53;94691.34;4912874;29;20473;-82
2021/09/12 09:51:23;;;;;;;5.40;3.70;;;;;;;27.40;32.23;94681.59;4913406;29;20095;-82
2021/09/12 09:53:49;;;;;;;4.68;3.80;;;;;;;26.85;32.60;94684.75;4912188;29;20031;-84
2021/09/12 09:56:15;;;;;;;4.78;3.10;;;;;;;26.37;32.52;94679.22;4913517;29;20047;-84
2021/09/12 09:58:43;;;;;;;6.00;4.32;;;;;;;26.05;32.94;94684.16;4911500;29;20505;-84
2021/09/12 10:01:08;;;;;;;9.18;3.92;;;;;;;27.07;32.82;94669.13;4929761;29;20568;-84
2021/09/12 10:03:33;;;;;;;7.47;3.88;;;;;;;26.57;33.23;94681.75;4881034;29;20016;-83
2021/09/12 10:05:59;;;;;;;3.75;3.22;;;;;;;27.28;32.73;94675.06;4882090;29;20119;-84
2021/09/12 10:08:25;;;;;;;6.43;3.45;;;;;;;26.79;31.84;94673.34;4896954;29;20047;-83
2021/09/12 10:10:50;;;;;;;5.05;3.40;;;;;;;26.99;31.34;94664.44;4929276;29;20034;-83
2021/09/12 10:13:16;;;;;;;4.22;3.67;;;;;;;25.67;33.53;94673.19;4929096;29;20023;-85
2021/09/12 10:15:41;;;;;;;4.80;3.67;;;;;;;26.80;33.55;94668.81;4928935;29;20031;-84
2021/09/12 10:18:08;;;;;;;5.68;3.30;;;;;;;26.32;33.22;94673.16;4929377;29;20023;-85
2021/09/12 10:20:35;;;;;;;5.43;3.30;;;;;;;26.08;31.97;94647.25;4911896;29;20466;-84
2021/09/12 10:23:06;;;;;;;5.10;3.25;;;;;;;26.64;32.36;94665.50;4913600;29;20023;-83
2021/09/12 10:25:32;;;;;;;3.50;3.20;;;;;;;27.02;31.18;94642.59;4912532;29;20110;-84
2021/09/12 10:27:58;;;;;;;3.47;3.17;;;;;;;27.31;31.58;94643.38;4912494;29;20024;-83
2021/09/12 10:30:30;;;;;;;4.88;3.28;;;;;;;27.26;30.23;94638.09;4929763;29;20410;-84
2021/09/12 10:33:16;;;;;;;3.35;3.05;;;;;;;26.64;31.40;94644.25;4929038;29;20035;-84
2021/09/12 10:35:48;;;;;;;6.85;3.05;;;;;;;26.66;31.89;94637.56;4930433;29;20115;-83
2021/09/12 10:38:25;;;;;;;3.78;2.60;;;;;;;26.23;32.07;94641.09;4928832;29;20500;-83
2021/09/12 10:40:50;;;;;;;5.60;3.13;;;;;;;26.91;33.07;94636.56;4912583;29;20462;-82
2021/09/12 10:43:25;;;;;;;3.42;2.90;;;;;;;27.65;31.52;94635.28;4929990;29;20126;-83
2021/09/12 10:45:56;;;;;;;3.40;3.10;;;;;;;27.32;31.88;94631.66;4929025;29;20032;-83
2021/09/12 10:48:22;;;;;;;7.28;3.60;;;;;;;26.56;31.16;94637.63;4930154;29;20035;-83
2021/09/12 10:50:48;;;;;;;4.60;2.78;;;;;;;26.84;31.57;94630.00;4913048;29;20031;-83
2021/09/12 10:53:13;;;;;;;3.40;2.95;;;;;;;26.38;31.22;94640.19;4901273;29;20050;-84
2021/09/12 10:56:01;;;;;;;6.88;3.05;;;;;;;26.54;31.16;94639.00;4915976;29;20036;-85
2021/09/12 10:58:30;;;;;;;8.02;3.55;;;;;;;25.92;32.12;94629.00;4930833;29;20509;-80
2021/09/12 11:00:57;;;;;;;6.07;3.08;;;;;;;26.69;31.15;94631.69;4931420;29;20050;-82
2021/09/12 11:03:23;;;;;;;3.30;3.00;;;;;;;26.79;31.32;94624.69;4914627;29;20119;-86
2021/09/12 11:05:48;;;;;;;2.95;2.65;;;;;;;26.91;31.67;94623.28;4916367;29;20047;-84
2021/09/12 11:08:14;;;;;;;7.78;7.05;;;;;;;26.27;31.58;94626.16;4915058;29;20058;-82
2021/09/12 11:10:40;;;;;;;3.58;3.28;;;;;;;25.86;32.37;94624.78;4916103;29;20027;-85
2021/09/12 11:13:06;;;;;;;7.25;3.60;;;;;;;26.79;32.11;94616.72;4900607;29;20046;-85
2021/09/12 11:15:32;;;;;;;5.60;3.10;;;;;;;26.41;31.65;94613.84;4915537;29;20032;-87
2021/09/12 11:17:57;;;;;;;5.97;2.78;;;;;;;27.23;32.02;94610.19;4931758;29;20035;-82
2021/09/12 11:20:43;;;;;;;3.17;2.72;;;;;;;27.68;32.46;94608.88;4930382;29;20023;-83
2021/09/12 11:23:10;;;;;;;4.70;3.40;;;;;;;27.03;32.57;94602.44;4933079;29;20485;-85
2021/09/12 11:25:35;;;;;;;3.30;2.90;;;;;;;27.22;33.82;94599.84;4914503;29;20020;-83
2021/09/12 11:28:05;;;;;;;4.28;2.95;;;;;;;27.38;33.35;94608.44;4915794;29;20090;-83
2021/09/12 11:30:31;;;;;;;7.57;3.13;;;;;;;27.12;31.38;94590.09;4914480;29;20047;-85
2021/09/12 11:32:56;;;;;;;6.53;2.70;;;;;;;27.14;31.91;94590.59;4899330;29;20098;-84
2021/09/12 11:35:22;;;;;;;9.00;3.60;;;;;;;27.81;32.01;94585.28;4884435;29;20154;-84
2021/09/12 11:38:09;;;;;;;3.78;3.38;;;;;;;28.31;31.95;94592.59;4900130;29;20107;-82
2021/09/12 11:40:35;;;;;;;5.53;3.67;;;;;;;28.23;30.68;94586.03;4884310;29;20035;-85
2021/09/12 11:43:10;;;;;;;4.00;2.97;;;;;;;28.10;30.90;94586.78;4914454;29;20425;-84
2021/09/12 11:45:36;;;;;;;8.88;3.65;;;;;;;28.13;31.52;94582.72;4899656;29;20130;-83
2021/09/12 11:48:02;;;;;;;6.32;3.42;;;;;;;28.12;32.13;94584.63;4915575;29;20518;-85
2021/09/12 11:50:27;;;;;;;4.97;2.97;;;;;;;27.32;32.13;94583.75;4914398;29;20055;-84
2021/09/12 11:52:53;;;;;;;8.68;4.63;;;;;;;27.16;31.43;94583.13;4932763;29;20027;-87
2021/09/12 11:55:19;;;;;;;5.60;3.35;;;;;;;27.45;31.51;94583.13;4898242;29;20613;-85
2021/09/12 11:58:04;;;;;;;3.75;3.13;;;;;;;26.70;31.55;94574.00;4899760;29;20034;-87
2021/09/12 12:00:30;;;;;;;3.97;3.30;;;;;;;26.92;32.72;94560.25;4913608;29;20028;-83
2021/09/12 12:02:55;;;;;;;5.55;3.05;;;;;;;26.97;32.35;94563.66;4898300;29;20036;-85
2021/09/12 12:05:21;;;;;;;7.28;3.50;;;;;;;27.22;32.52;94568.72;4900080;29;20441;-86
2021/09/12 12:07:46;;;;;;;4.75;3.30;;;;;;;27.45;32.27;94571.66;4914167;29;20034;-85
2021/09/12 12:10:31;;;;;;;6.53;3.35;;;;;;;27.14;32.73;94568.53;4915476;29;20035;-86
2021/09/12 12:12:57;;;;;;;3.97;3.65;;;;;;;27.79;31.35;94563.50;4914028;29;20083;-85
2021/09/12 12:15:47;;;;;;;6.38;4.00;;;;;;;27.91;32.30;94561.97;4915009;29;20043;-86
2021/09/12 12:18:14;;;;;;;4.95;3.35;;;;;;;27.28;32.72;94553.47;4915350;29;20027;-84
2021/09/12 12:20:40;;;;;;;4.25;3.95;;;;;;;26.67;32.84;94563.94;4913893;29;20024;-87
2021/09/12 12:23:20;;;;;;;5.50;3.75;;;;;;;26.84;33.28;94556.38;4932044;29;20501;-85
2021/09/12 12:25:47;;;;;;;4.50;3.30;;;;;;;27.20;32.84;94551.44;4913637;29;20098;-84
2021/09/12 12:28:23;;;;;;;5.35;3.40;;;;;;;27.20;32.59;94554.88;4883859;29;20067;-79
2021/09/12 12:31:15;;;;;;;4.72;4.20;;;;;;;27.18;33.17;94554.38;4898913;29;20048;-85
2021/09/12 12:33:42;;;;;;;6.28;4.13;;;;;;;27.30;33.62;94555.84;4929390;29;20386;-85
2021/09/12 12:36:12;;;;;;;3.90;3.60;;;;;;;27.72;31.81;94555.84;4899042;29;20027;-87
2021/09/12 12:38:38;;;;;;;6.03;4.07;;;;;;;27.38;31.98;94550.69;4913301;29;20079;-87
2021/09/12 12:41:08;;;;;;;5.78;4.15;;;;;;;26.93;32.44;94538.72;4931642;29;20032;-85
2021/09/12 12:43:33;;;;;;;6.60;3.83;;;;;;;26.89;32.89;94553.66;4913329;29;20035;-85
2021/09/12 12:45:59;;;;;;;4.13;3.67;;;;;;;27.21;31.62;94551.16;4914353;29;20115;-84
2021/09/12 12:48:24;;;;;;;5.68;3.60;;;;;;;26.86;32.75;94556.88;4931576;29;20031;-84
2021/09/12 12:50:53;;;;;;;7.15;4.72;;;;;;;26.09;33.16;94550.59;4913246;29;20050;-84
2021/09/12 12:55:53;;;;;;;9.18;5.20;;;;;;;26.19;34.45;94549.75;4929998;29;20071;-87
2021/09/12 12:58:19;;;;;;;13.65;6.20;;;;;;;26.09;34.21;94541.81;4914051;29;20082;-81
2021/09/12 13:00:45;;;;;;;7.32;5.18;;;;;;;25.99;34.95;94547.19;4912200;29;20064;-82
2021/09/12 13:03:10;;;;;;;6.28;5.50;;;;;;;25.83;34.71;94529.78;4931278;29;20123;-83
2021/09/12 13:05:36;;;;;;;12.25;5.50;;;;;;;25.91;34.75;94545.16;4913782;29;20126;-85
2021/09/12 13:08:05;;;;;;;7.63;5.63;;;;;;;26.06;34.71;94548.47;4913322;29;20024;-85
2021/09/12 13:10:32;;;;;;;6.93;5.43;;;;;;;26.13;34.30;94542.84;4914773;29;20027;-85
2021/09/12 13:12:58;;;;;;;36.90;7.07;;;;;;;26.54;34.32;94543.34;4928799;29;20032;-84
2021/09/12 13:15:24;;;;;;;9.95;4.80;;;;;;;26.77;34.01;94539.13;4929169;29;20036;-85
2021/09/12 13:17:50;;;;;;;5.97;5.30;;;;;;;26.53;34.07;94541.72;4928316;29;20038;-85
2021/09/12 13:20:15;;;;;;;6.40;4.97;;;;;;;26.58;34.10;94547.81;4929884;29;20416;-83
2021/09/12 13:22:41;;;;;;;6.63;4.70;;;;;;;26.41;34.38;94539.47;4928710;29;20034;-86
2021/09/12 13:25:07;;;;;;;12.75;5.60;;;;;;;26.24;34.87;94536.41;4913442;29;20095;-84
2021/09/12 13:27:32;;;;;;;7.93;4.90;;;;;;;26.15;35.19;94538.84;4913995;29;20083;-85
2021/09/12 13:29:57;;;;;;;4.72;4.32;;;;;;;26.01;35.10;94547.69;4928124;29;20024;-85
2021/09/12 13:32:23;;;;;;;9.95;5.18;;;;;;;25.87;35.26;94539.59;4898169;29;20040;-85
2021/09/12 13:34:48;;;;;;;7.85;4.78;;;;;;;25.65;36.33;94529.34;4896359;29;20028;-84
2021/09/12 13:37:14;;;;;;;19.40;8.57;;;;;;;25.44;36.11;94530.50;4913850;29;20030;-83
2021/09/12 13:39:39;;;;;;;5.40;4.50;;;;;;;25.75;35.44;94535.69;4912377;29;20020;-84
2021/09/12 13:42:05;;;;;;;22.98;8.27;;;;;;;25.75;34.27;94533.81;4913041;29;20036;-80
2021/09/12 13:44:30;;;;;;;10.27;5.53;;;;;;;25.48;35.35;94528.91;4913117;29;20051;-83
2021/09/12 13:46:56;;;;;;;10.43;5.28;;;;;;;25.40;35.58;94529.47;4913673;29;20034;-85
2021/09/12 13:49:21;;;;;;;32.60;10.43;;;;;;;25.71;34.44;94527.47;4898213;29;20035;-85
2021/09/12 13:51:46;;;;;;;5.43;4.93;;;;;;;26.10;35.39;94522.16;4911070;29;20489;-85
2021/09/12 13:54:12;;;;;;;10.27;4.95;;;;;;;26.10;35.17;94519.50;4930652;29;20131;-86
2021/09/12 13:56:39;;;;;;;5.85;5.35;;;;;;;26.13;35.49;94521.63;4929383;29;20036;-85
2021/09/12 13:59:05;;;;;;;7.03;6.43;;;;;;;26.05;34.85;94524.84;4896859;29;20034;-81
2021/09/12 14:01:30;;;;;;;6.80;6.07;;;;;;;25.85;34.39;94527.66;4910271;29;20048;-84
2021/09/12 14:03:56;;;;;;;6.72;5.32;;;;;;;26.13;35.20;94524.25;4910959;29;20032;-84
2021/09/12 14:06:21;;;;;;;5.60;5.10;;;;;;;25.60;35.20;94518.78;4911417;29;20043;-82
2021/09/12 14:08:47;;;;;;;9.32;5.30;;;;;;;25.56;36.02;94522.25;4910546;29;20024;-85
2021/09/12 14:11:13;;;;;;;6.90;5.68;;;;;;;25.30;35.89;94520.78;4911411;29;20474;-83
2021/09/12 14:13:38;;;;;;;7.03;6.53;;;;;;;25.29;36.35;94514.69;4910106;29;20048;-85
2021/09/12 14:16:04;;;;;;;5.78;5.28;;;;;;;24.99;36.56;94520.91;4894349;29;20082;-85
2021/09/12 14:18:29;;;;;;;7.50;6.18;;;;;;;24.89;37.37;94517.47;4894898;29;20091;-85
2021/09/12 14:20:55;;;;;;;16.00;13.43;;;;;;;24.89;37.60;94520.13;4928074;29;20164;-84
2021/09/12 14:23:20;;;;;;;16.63;11.90;;;;;;;24.74;37.04;94522.81;4895671;29;20421;-82
2021/09/12 14:25:46;;;;;;;22.85;11.38;;;;;;;24.69;36.13;94515.69;4898370;29;20095;-83
2021/09/12 14:28:11;;;;;;;11.43;8.13;;;;;;;24.70;37.03;94513.81;4900853;29;20032;-84
2021/09/12 14:30:37;;;;;;;6.63;6.03;;;;;;;24.79;36.92;94515.63;4899904;29;20044;-84
2021/09/12 14:33:03;;;;;;;8.05;6.45;;;;;;;24.78;37.10;94515.91;4901007;29;20028;-83
2021/09/12 14:35:28;;;;;;;9.13;6.78;;;;;;;24.60;36.87;94519.91;4899791;29;20581;-84
2021/09/12 14:37:54;;;;;;;11.05;8.20;;;;;;;24.78;37.41;94526.50;4901096;29;20028;-83
2021/09/12 14:40:19;;;;;;;11.07;7.07;;;;;;;24.69;37.88;94515.69;4915172;29;20417;-84
2021/09/12 14:42:45;;;;;;;10.18;5.65;;;;;;;24.70;36.92;94519.09;4885341;29;20039;-83
2021/09/12 14:45:10;;;;;;;11.82;10.68;;;;;;;24.64;37.43;94515.69;4916013;29;20525;-82
2021/09/12 14:47:43;;;;;;;7.63;6.53;;;;;;;24.63;36.92;94525.47;4915864;29;20114;-83
2021/09/12 14:50:09;;;;;;;9.18;8.27;;;;;;;24.62;37.45;94523.91;4917378;29;20036;-83
2021/09/12 14:52:34;;;;;;;7.13;6.43;;;;;;;24.47;37.19;94521.25;4899241;29;20106;-83
2021/09/12 14:55:01;;;;;;;9.15;6.47;;;;;;;24.47;37.19;94520.47;4912857;29;20514;-85
2021/09/12 14:57:27;;;;;;;8.98;7.57;;;;;;;24.43;37.66;94514.94;4914159;29;20032;-82
2021/09/12 14:59:52;;;;;;;11.23;6.90;;;;;;;24.27;37.57;94512.56;4915625;29;20030;-80
2021/09/12 15:02:18;;;;;;;18.08;11.85;;;;;;;24.38;37.67;94524.72;4927605;29;20100;-84
2021/09/12 15:04:43;;;;;;;12.60;7.00;;;;;;;24.34;37.24;94515.75;4896956;29;20406;-83
2021/09/12 15:07:09;;;;;;;7.22;6.55;;;;;;;24.21;37.25;94514.41;4897120;29;20031;-83
2021/09/12 15:09:34;;;;;;;14.32;7.97;;;;;;;24.26;36.99;94527.66;4896107;29;20035;-83
2021/09/12 15:12:00;;;;;;;7.45;6.72;;;;;;;24.11;37.58;94539.03;4866473;29;20104;-83
2021/09/12 15:14:25;;;;;;;6.43;5.82;;;;;;;24.01;38.86;94532.94;4912594;29;20443;-83
2021/09/12 15:16:50;;;;;;;8.93;6.47;;;;;;;23.84;38.25;94525.22;4897300;29;20632;-83
2021/09/12 15:19:16;;;;;;;10.52;8.23;;;;;;;23.69;38.46;94521.78;4880066;29;20509;-83
2021/09/12 15:21:44;;;;;;;6.85;6.15;;;;;;;23.66;38.48;94530.25;4881240;29;20036;-83
2021/09/12 15:24:10;;;;;;;10.43;6.78;;;;;;;23.52;39.21;94525.44;4913447;29;20039;-83
2021/09/12 15:26:35;;;;;;;12.20;6.53;;;;;;;23.35;39.10;94518.75;4896162;29;20020;-84
2021/09/12 15:29:01;;;;;;;9.48;6.72;;;;;;;23.30;39.37;94521.38;4881373;29;20040;-82
2021/09/12 15:31:26;;;;;;;9.52;7.40;;;;;;;23.21;40.72;94529.03;4895167;29;20032;-86
2021/09/12 15:33:52;;;;;;;10.13;7.30;;;;;;;23.18;39.40;94534.84;4913432;29;20414;-83
2021/09/12 15:36:17;;;;;;;9.50;8.18;;;;;;;23.12;39.07;94535.09;4894919;29;20040;-83
2021/09/12 15:38:42;;;;;;;7.63;6.80;;;;;;;23.06;39.67;94532.41;4911804;29;20084;-84
2021/09/12 15:41:08;;;;;;;7.53;6.70;;;;;;;23.09;39.72;94531.09;4895955;29;20028;-82
2021/09/12 15:43:33;;;;;;;8.50;6.55;;;;;;;23.16;39.56;94536.94;4895393;29;20026;-84
2021/09/12 15:45:59;;;;;;;7.85;7.00;;;;;;;23.15;39.61;94535.34;4896259;29;20100;-82
2021/09/12 15:48:24;;;;;;;11.43;7.25;;;;;;;23.05;40.20;94538.72;4864468;29;20315;-83
2021/09/12 15:50:50;;;;;;;9.13;6.50;;;;;;;22.97;40.01;94533.94;4896648;29;20036;-82
2021/09/12 15:53:15;;;;;;;10.63;6.40;;;;;;;22.91;40.08;94539.47;4894824;29;20040;-83
2021/09/12 15:55:41;;;;;;;10.32;6.78;;;;;;;22.75;41.12;94528.03;4896342;29;20036;-84
2021/09/12 15:58:07;;;;;;;7.43;6.45;;;;;;;22.67;40.79;94523.22;4895296;29;20096;-84
2021/09/12 16:00:33;;;;;;;6.78;6.10;;;;;;;22.52;41.34;94531.03;4880887;29;20514;-84
2021/09/12 16:02:58;;;;;;;7.90;7.13;;;;;;;22.53;40.90;94530.00;4931751;29;20095;-83
2021/09/12 16:05:24;;;;;;;8.90;7.18;;;;;;;22.33;41.25;94521.94;4913924;29;20040;-82
2021/09/12 16:07:49;;;;;;;6.80;6.22;;;;;;;22.30;41.27;94533.81;4883727;29;20039;-83
2021/09/12 16:10:14;;;;;;;12.30;7.20;;;;;;;22.14;41.29;94526.81;4930923;29;20024;-84
2021/09/12 16:12:41;;;;;;;8.32;6.30;;;;;;;22.01;42.22;94525.41;4899491;29;20036;-84
2021/09/12 16:15:07;;;;;;;7.32;6.10;;;;;;;21.88;42.45;94531.06;4898110;29;20114;-83
2021/09/12 16:17:33;;;;;;;8.68;6.50;;;;;;;21.72;42.43;94537.25;4898955;29;20039;-83
2021/09/12 16:19:58;;;;;;;9.55;8.55;;;;;;;21.64;43.57;94532.41;4898501;29;20594;-83
2021/09/12 16:22:24;;;;;;;9.88;6.60;;;;;;;21.43;44.15;94534.06;4914581;29;20417;-84
2021/09/12 16:24:49;;;;;;;13.02;7.55;;;;;;;21.34;44.21;94534.75;4898876;29;20036;-83
2021/09/12 16:27:15;;;;;;;10.13;6.25;;;;;;;21.25;43.86;94531.78;4898015;29;20035;-83
2021/09/12 16:29:40;;;;;;;8.15;6.32;;;;;;;21.20;43.21;94544.06;4914064;29;20043;-84
2021/09/12 16:32:07;;;;;;;7.68;5.88;;;;;;;21.14;43.65;94535.31;4897099;29;20035;-83